KPVW/PVW METAR and TAF weather

Enter ICAO airport designator
Station Type Date Time Source
KPVW METAR 2021/04/18 03:15 UTC NOAA

KPVW 180315Z AUTO 05008KT 10SM OVC065 08/M01 A3021 RMK AO2 T00791015


Station Type Date Time Source
KPVW Decoded METAR 2021/04/18 03:15 UTC NOAA

Plainview, Hale County Airport, TX, United States (KPVW) 34-10-05N 101-43-02W
Apr 17, 2021 - 11:15 PM EDT / 2021.04.18 0315 UTC
Wind: from the NE (050 degrees) at 9 MPH (8 KT):0
Visibility: 10 mile(s):0
Sky conditions: overcast
Temperature: 46.2 F (7.9 C)
Dew Point: 29.3 F (-1.5 C)
Relative Humidity: 51%
Pressure (altimeter): 30.21 in. Hg (1023 hPa)
ob: KPVW 180315Z AUTO 05008KT 10SM OVC065 08/M01 A3021 RMK AO2 T00791015
cycle: 3

Station Type Date Time Source
KPVW TAF 2021/04/17 18:27 UTC NOAA

TAF KPVW 171725Z 1718/1818 02011KT P6SM SCT028 BKN035 OVC100
FM180100 05010KT P6SM BKN060 BKN150

Example: see airport list